Time;durP1;ratioP1;P1;durP2;ratioP2;P2;SDS_P1;SDS_P2;PMS_P1;PMS_P2;Temp;Humidity;BMP_temperature;BMP_pressure;BME280_temperature;BME280_humidity;BME280_pressure;Samples;Min_cycle;Max_cycle;Signal;HPM_P1;HPM_P2
2021/06/08 00:04:25;;;;;;;4.30;3.17;;;;;;;21.01;46.49;101070.98;4886098;59;1139042;-74
2021/06/08 00:09:31;;;;;;;3.35;3.05;;;;;;;20.87;46.70;101071.20;4886163;59;1138858;-74
2021/06/08 00:14:36;;;;;;;5.65;3.60;;;;;;;20.69;46.91;101071.91;4886239;59;1138891;-74
2021/06/08 00:19:43;;;;;;;10.68;3.70;;;;;;;20.51;47.12;101073.95;4886275;59;1138783;-78
2021/06/08 00:24:48;;;;;;;11.05;4.62;;;;;;;20.35;47.34;101068.89;4886144;59;1140884;-72
2021/06/08 00:29:54;;;;;;;9.80;5.55;;;;;;;20.18;47.65;101071.74;4898618;59;1140945;-72
2021/06/08 00:35:00;;;;;;;10.38;6.70;;;;;;;19.85;47.84;101073.09;4949027;59;1139091;-76
2021/06/08 00:40:07;;;;;;;13.56;6.18;;;;;;;19.53;48.53;101062.28;4948715;59;1140928;-77
2021/06/08 00:45:15;;;;;;;19.60;8.53;;;;;;;19.28;48.99;101058.63;4948718;59;1141167;-78
2021/06/08 00:50:21;;;;;;;14.75;7.55;;;;;;;19.17;49.58;101069.66;4948772;59;1140939;-76
2021/06/08 00:55:28;;;;;;;10.10;5.58;;;;;;;19.17;50.07;101067.81;4948990;59;1140890;-72
2021/06/08 01:00:35;;;;;;;6.53;3.98;;;;;;;19.26;50.49;101066.84;4948733;58;1140582;-75
2021/06/08 01:05:41;;;;;;;8.30;3.83;;;;;;;19.32;50.29;101066.20;4949216;59;1138753;-77
2021/06/08 01:10:48;;;;;;;11.97;6.20;;;;;;;19.28;49.76;101066.17;4949091;58;1138673;-74
2021/06/08 01:15:53;;;;;;;10.60;5.70;;;;;;;18.92;49.70;101060.67;4948816;59;1140507;-72
2021/06/08 01:21:07;;;;;;;11.40;6.53;;;;;;;18.65;50.46;101071.05;4948629;59;1140438;-73
2021/06/08 01:26:13;;;;;;;12.53;6.83;;;;;;;18.54;51.20;101066.77;4947785;59;1140617;-75
2021/06/08 01:31:26;;;;;;;12.13;6.10;;;;;;;18.49;51.54;101065.05;4941768;58;1141454;-73
2021/06/08 01:36:36;;;;;;;10.65;5.80;;;;;;;18.54;51.82;101061.91;4900148;58;1140544;-76
2021/06/08 01:41:42;;;;;;;8.83;6.25;;;;;;;18.56;51.71;101066.11;4954421;58;1140508;-77
2021/06/08 01:46:47;;;;;;;11.43;5.95;;;;;;;18.27;51.50;101077.13;4900602;58;1138474;-76
2021/06/08 01:52:18;;;;;;;8.78;6.10;;;;;;;18.01;52.11;101072.72;4899907;58;1140471;-73
2021/06/08 01:57:51;;;;;;;10.93;5.90;;;;;;;17.86;52.65;101071.91;4900403;58;1138253;-76
2021/06/08 02:03:15;;;;;;;8.88;5.55;;;;;;;17.79;52.99;101084.20;4899892;58;1141167;-72
2021/06/08 02:08:31;;;;;;;7.30;5.10;;;;;;;17.57;53.05;101085.92;4976344;58;1138411;-72
2021/06/08 02:14:14;;;;;;;8.03;5.70;;;;;;;17.39;53.56;101089.09;4980240;58;1138806;-73
2021/06/08 02:19:23;;;;;;;10.27;6.00;;;;;;;17.06;53.94;101087.83;4980042;58;1138267;-77
2021/06/08 02:24:32;;;;;;;10.40;5.90;;;;;;;17.01;54.57;101088.75;4899840;58;1140608;-76
2021/06/08 02:29:42;;;;;;;7.53;5.62;;;;;;;16.81;54.60;101088.81;4983426;58;1140803;-73
2021/06/08 02:34:49;;;;;;;8.65;6.28;;;;;;;16.68;54.94;101087.45;5025689;57;1138526;-76
2021/06/08 02:39:57;;;;;;;10.87;6.10;;;;;;;16.45;55.46;101094.44;5002290;58;1138461;-75
2021/06/08 02:45:04;;;;;;;10.93;6.60;;;;;;;16.24;56.01;101097.75;5002130;58;1141062;-78
2021/06/08 02:50:12;;;;;;;10.23;6.33;;;;;;;16.16;56.48;101103.80;5001961;58;1140846;-76
2021/06/08 02:55:18;;;;;;;11.37;5.57;;;;;;;16.16;56.59;101098.95;5001847;58;1140515;-72
2021/06/08 03:00:25;;;;;;;17.97;8.10;;;;;;;15.99;56.90;101099.16;5001835;58;1140630;-70
2021/06/08 03:05:42;;;;;;;14.23;7.17;;;;;;;15.90;57.16;101100.47;5001759;58;1140954;-72
2021/06/08 03:10:51;;;;;;;14.47;8.70;;;;;;;15.95;57.51;101097.75;5065375;57;1141036;-76
2021/06/08 03:16:00;;;;;;;14.10;7.53;;;;;;;15.98;58.02;101097.48;5065935;57;1140915;-74
2021/06/08 03:21:30;;;;;;;10.17;7.23;;;;;;;15.99;58.03;101107.17;5026450;57;1140353;-73
2021/06/08 03:26:37;;;;;;;13.53;7.23;;;;;;;16.01;58.29;101104.36;5065363;57;1140526;-74
2021/06/08 03:31:46;;;;;;;11.80;7.33;;;;;;;16.02;58.33;101100.72;5065346;57;1140364;-72
2021/06/08 03:36:55;;;;;;;13.28;7.42;;;;;;;15.94;58.54;101108.55;5065678;57;1140860;-73
2021/06/08 03:42:02;;;;;;;11.63;7.53;;;;;;;15.86;58.97;101108.42;5001763;58;1140378;-75
2021/06/08 03:47:08;;;;;;;8.70;5.97;;;;;;;15.70;59.81;101116.47;5001647;58;1141067;-70
2021/06/08 03:52:14;;;;;;;8.90;6.60;;;;;;;15.57;60.24;101117.70;5001854;58;1139052;-76
2021/06/08 03:57:28;;;;;;;15.93;7.60;;;;;;;15.49;60.60;101118.34;5001564;58;1138923;-75
2021/06/08 04:02:30;;;;;;;10.30;8.20;;;;;;;15.54;60.94;101112.61;5076653;57;1140953;-75
2021/06/08 04:07:42;;;;;;;16.40;7.67;;;;;;;15.60;61.19;101116.91;5068784;57;1140885;-69
2021/06/08 04:12:48;;;;;;;14.65;7.15;;;;;;;15.66;61.51;101109.72;5064330;57;1140892;-77
2021/06/08 04:17:56;;;;;;;15.32;6.80;;;;;;;15.81;61.68;101113.67;5064491;57;1140866;-73
2021/06/08 04:23:02;;;;;;;9.03;6.20;;;;;;;15.97;61.81;101116.28;5010828;57;1141099;-69
2021/06/08 04:28:07;;;;;;;10.00;6.03;;;;;;;16.10;61.86;101107.52;4982422;58;1139016;-74
2021/06/08 04:33:14;;;;;;;12.10;6.70;;;;;;;16.27;61.70;101116.16;4982863;58;1140975;-75
2021/06/08 04:38:22;;;;;;;8.13;5.63;;;;;;;16.42;61.68;101116.56;4951717;58;1141096;-71
2021/06/08 04:43:28;;;;;;;7.27;5.53;;;;;;;16.66;61.55;101118.30;4970356;58;1138738;-71
2021/06/08 04:48:35;;;;;;;5.97;5.00;;;;;;;16.86;61.20;101115.95;4977596;58;1138807;-75
2021/06/08 04:53:41;;;;;;;9.67;5.97;;;;;;;17.04;60.87;101124.55;4990278;58;1138740;-73
2021/06/08 04:58:47;;;;;;;9.60;5.67;;;;;;;17.21;60.45;101126.45;4973235;58;1138791;-75
2021/06/08 05:03:57;;;;;;;13.20;5.10;;;;;;;17.38;60.10;101124.83;4979323;57;1138666;-70
2021/06/08 05:09:08;;;;;;;9.30;4.73;;;;;;;17.56;60.08;101133.27;5007180;58;1140758;-73
2021/06/08 05:14:15;;;;;;;7.67;4.27;;;;;;;17.75;59.84;101132.31;5049705;57;1138297;-73
2021/06/08 05:19:21;;;;;;;11.27;5.40;;;;;;;17.94;59.46;101132.69;5007690;58;1138787;-74
2021/06/08 05:24:28;;;;;;;27.90;5.83;;;;;;;18.12;59.67;101129.53;5049402;58;1140660;-71
2021/06/08 05:29:34;;;;;;;5.63;4.90;;;;;;;18.36;59.29;101128.89;5007503;58;1140530;-76
2021/06/08 05:34:42;;;;;;;8.63;4.43;;;;;;;18.63;59.13;101128.00;5000382;58;1178862;-77
2021/06/08 05:39:48;;;;;;;5.50;4.70;;;;;;;18.85;58.65;101123.94;5030781;58;1138994;-74
2021/06/08 05:44:55;;;;;;;16.85;4.30;;;;;;;19.06;58.20;101123.58;4942312;58;1139021;-72
2021/06/08 05:50:01;;;;;;;11.03;4.20;;;;;;;19.31;57.86;101138.28;4963160;57;1141134;-74
2021/06/08 05:55:08;;;;;;;6.12;4.58;;;;;;;19.45;57.33;101138.17;5003225;58;1140439;-72
2021/06/08 06:00:15;;;;;;;6.55;3.92;;;;;;;19.68;57.04;101143.00;4828141;59;1138290;-72
2021/06/08 06:05:23;;;;;;;10.03;4.53;;;;;;;19.92;57.00;101149.77;4837262;60;1138335;-75
2021/06/08 06:10:28;;;;;;;6.15;3.55;;;;;;;20.11;56.66;101149.97;4772542;60;1140879;-80
2021/06/08 06:15:35;;;;;;;8.45;4.53;;;;;;;20.30;55.98;101151.86;4986045;58;1138447;-76
2021/06/08 06:20:42;;;;;;;9.73;4.55;;;;;;;20.35;55.75;101148.64;4918806;58;1138573;-75
2021/06/08 06:25:51;;;;;;;12.10;3.52;;;;;;;20.59;55.72;101145.17;4993683;57;1138968;-73
2021/06/08 06:30:58;;;;;;;4.78;3.77;;;;;;;20.83;54.88;101143.79;4794835;59;1141452;-74
2021/06/08 06:36:09;;;;;;;11.80;4.90;;;;;;;21.02;54.23;101149.31;4795266;60;1139012;-74
2021/06/08 06:41:15;;;;;;;11.25;3.40;;;;;;;21.21;53.41;101154.34;4781590;60;1141228;-79
2021/06/08 06:46:22;;;;;;;6.53;2.92;;;;;;;21.39;53.07;101154.09;4974107;58;1140784;-78
2021/06/08 06:51:29;;;;;;;5.20;3.47;;;;;;;21.47;52.64;101155.42;4993436;58;1139000;-78
2021/06/08 06:56:35;;;;;;;3.00;2.80;;;;;;;21.59;52.85;101149.14;4872544;58;1138461;-76
2021/06/08 07:01:43;;;;;;;5.15;3.37;;;;;;;21.81;52.23;101151.06;4892517;58;1138853;-76
2021/06/08 07:06:49;;;;;;;6.65;2.45;;;;;;;21.99;52.01;101150.80;4888801;58;1138623;-76
2021/06/08 07:11:57;;;;;;;6.75;2.70;;;;;;;22.19;50.75;101148.48;4870890;58;1138573;-69
2021/06/08 07:17:03;;;;;;;11.00;2.92;;;;;;;22.32;50.07;101148.22;4842117;57;1138432;-73
2021/06/08 07:22:10;;;;;;;6.92;2.47;;;;;;;22.53;49.07;101152.95;4841844;58;1140416;-74
2021/06/08 07:27:16;;;;;;;6.92;2.77;;;;;;;22.72;48.07;101155.14;4842206;58;1138310;-77
2021/06/08 07:33:12;;;;;;;9.78;5.45;;;;;;;22.92;47.87;101152.77;4842489;58;1138827;-76
2021/06/08 07:38:34;;;;;;;2.52;2.30;;;;;;;23.13;47.29;101144.80;4842140;58;1138416;-74
2021/06/08 07:44:00;;;;;;;6.27;2.47;;;;;;;23.24;47.59;101151.59;4906710;58;1138338;-72
2021/06/08 07:49:06;;;;;;;2.00;1.90;;;;;;;23.33;46.75;101149.14;4973277;58;1138528;-74
2021/06/08 07:54:13;;;;;;;2.95;2.40;;;;;;;23.47;46.96;101151.50;4973524;58;1138511;-75
2021/06/08 07:59:19;;;;;;;9.00;3.17;;;;;;;23.67;46.90;101158.03;5048995;57;1138297;-79
2021/06/08 08:04:25;;;;;;;5.15;2.62;;;;;;;23.89;46.38;101156.20;5049077;57;1138944;-75
2021/06/08 08:09:32;;;;;;;12.15;4.78;;;;;;;24.01;44.95;101159.23;5007455;58;1139032;-77
2021/06/08 08:14:40;;;;;;;3.33;2.45;;;;;;;24.25;46.05;101160.78;5049125;57;1141163;-76
2021/06/08 08:19:45;;;;;;;3.52;2.70;;;;;;;24.53;45.49;101155.75;5007179;58;1138316;-75
2021/06/08 08:24:51;;;;;;;7.13;2.40;;;;;;;24.71;44.09;101162.05;4971691;58;1138928;-73
2021/06/08 08:29:57;;;;;;;2.65;2.45;;;;;;;24.67;42.05;101154.50;4972901;58;1138950;-75
2021/06/08 08:35:03;;;;;;;5.85;2.12;;;;;;;24.60;44.10;101154.95;4992080;57;1138994;-78
2021/06/08 08:40:11;;;;;;;4.45;2.08;;;;;;;24.75;43.54;101151.13;4997156;58;1138786;-76
2021/06/08 08:45:18;;;;;;;4.28;2.08;;;;;;;24.82;41.82;101153.90;5006630;57;1138792;-77
2021/06/08 08:50:25;;;;;;;10.28;2.30;;;;;;;24.88;41.99;101155.83;5003731;57;1138851;-75
2021/06/08 08:55:36;;;;;;;2.65;2.02;;;;;;;25.18;41.30;101150.55;5062185;57;1141026;-75
2021/06/08 09:00:44;;;;;;;6.30;1.83;;;;;;;25.43;40.83;101149.53;5063244;57;1138748;-74
2021/06/08 09:05:50;;;;;;;3.02;1.37;;;;;;;25.28;39.35;101143.92;5062433;57;1138756;-74
2021/06/08 09:10:59;;;;;;;6.25;2.08;;;;;;;25.40;38.63;101143.15;5062554;57;1138487;-77
2021/06/08 09:16:04;;;;;;;1.22;1.10;;;;;;;25.43;39.71;101144.11;5040739;57;1138828;-79
2021/06/08 09:21:17;;;;;;;9.25;1.80;;;;;;;25.74;38.96;101142.81;5017224;57;1138853;-79
2021/06/08 09:26:21;;;;;;;;;;;;;;;25.69;37.08;101143.41;5024264;57;1138736;-78
2021/06/08 09:31:29;;;;;;;5.80;1.82;;;;;;;25.73;36.53;101139.78;5102112;57;976235;-77
2021/06/08 09:36:35;;;;;;;5.53;1.98;;;;;;;25.79;36.65;101142.53;5091192;57;1136562;-77
2021/06/08 09:41:49;;;;;;;4.10;2.08;;;;;;;25.72;36.71;101137.59;5094440;57;1138481;-79
2021/06/08 09:46:59;;;;;;;2.15;1.80;;;;;;;25.92;37.04;101139.86;5004061;57;1138965;-78
2021/06/08 09:52:08;;;;;;;3.98;1.57;;;;;;;26.30;35.90;101142.03;4911850;58;1138378;-80
2021/06/08 09:57:29;;;;;;;26.10;2.52;;;;;;;26.41;35.68;101116.19;4913678;58;1138410;-76
2021/06/08 10:02:48;;;;;;;4.72;1.50;;;;;;;26.41;35.68;101116.19;4919232;58;1140395;-75
2021/06/08 10:08:06;;;;;;;166.22;9.08;;;;;;;26.72;34.92;101129.96;4908637;58;1138848;-75
2021/06/08 10:13:14;;;;;;;16.62;2.60;;;;;;;26.85;34.98;101131.82;4971409;58;1143245;-78
2021/06/08 10:18:20;;;;;;;9.65;1.60;;;;;;;27.05;34.70;101128.56;4976356;58;1140914;-81
2021/06/08 10:23:33;;;;;;;3.45;1.62;;;;;;;27.16;33.79;101121.66;4969097;58;1138488;-77
2021/06/08 10:28:40;;;;;;;6.30;1.70;;;;;;;27.22;33.02;101118.91;4976537;58;1138417;-76
2021/06/08 10:33:46;;;;;;;3.80;2.10;;;;;;;27.33;33.61;101111.17;4976539;58;1138653;-76
2021/06/08 10:38:52;;;;;;;4.07;2.13;;;;;;;27.51;33.51;101109.40;4976523;58;1138712;-75
2021/06/08 10:44:00;;;;;;;6.70;1.70;;;;;;;27.48;32.54;101101.70;4913124;58;1138659;-76
2021/06/08 10:49:06;;;;;;;7.97;1.50;;;;;;;27.68;33.51;101111.66;4939443;58;1138532;-77
2021/06/08 10:54:19;;;;;;;1.72;1.62;;;;;;;27.87;32.15;101112.08;4978317;58;1138631;-82
2021/06/08 10:59:37;;;;;;;2.08;1.40;;;;;;;27.83;31.93;101113.56;4996539;58;1138506;-79
2021/06/08 11:04:55;;;;;;;4.28;1.70;;;;;;;27.84;32.45;101109.27;4966898;58;1138416;-79
2021/06/08 11:10:02;;;;;;;1.67;1.30;;;;;;;27.91;32.11;101100.56;4932744;58;1138890;-81
2021/06/08 11:15:21;;;;;;;1.50;1.40;;;;;;;28.16;31.85;101097.03;4939851;58;1138843;-79
2021/06/08 11:20:29;;;;;;;5.50;1.60;;;;;;;28.32;30.73;101096.53;4987426;58;1138731;-79
2021/06/08 11:25:42;;;;;;;4.10;2.08;;;;;;;28.48;29.41;101076.09;5006839;58;1138891;-77
2021/06/08 11:31:02;;;;;;;4.90;1.77;;;;;;;28.48;29.41;101076.09;5002401;58;1138922;-77
2021/06/08 11:36:29;;;;;;;5.05;1.30;;;;;;;28.35;30.44;101079.23;4981142;58;1138569;-76
2021/06/08 11:41:40;;;;;;;3.05;1.30;;;;;;;28.50;30.76;101085.70;4987204;58;1138448;-76
2021/06/08 11:46:56;;;;;;;2.66;1.62;;;;;;;28.54;28.50;101081.48;5020787;58;1138745;-77
2021/06/08 11:52:15;;;;;;;7.83;2.33;;;;;;;28.58;31.16;101073.16;4951236;58;1138536;-79
2021/06/08 11:57:40;;;;;;;6.25;1.90;;;;;;;28.82;30.15;101077.48;4953404;58;1138894;-75
2021/06/08 12:02:48;;;;;;;3.25;1.40;;;;;;;28.89;29.02;101065.44;5025681;58;1138317;-77
2021/06/08 12:08:03;;;;;;;4.33;1.50;;;;;;;29.02;30.55;101074.85;5006222;58;1138826;-79
2021/06/08 12:13:07;;;;;;;4.28;1.95;;;;;;;29.12;27.94;101068.03;4937220;58;1138834;-78
2021/06/08 12:18:23;;;;;;;1.45;1.45;;;;;;;29.00;29.60;101066.60;4931641;58;1139066;-79
2021/06/08 12:23:34;;;;;;;3.37;1.60;;;;;;;29.03;28.43;101062.88;4931473;58;1139028;-74
2021/06/08 12:28:42;;;;;;;2.15;1.25;;;;;;;29.08;27.97;101058.64;4991933;58;1139080;-77
2021/06/08 12:33:49;;;;;;;9.00;1.82;;;;;;;29.21;29.56;101054.39;5006122;58;1138943;-78
2021/06/08 12:38:57;;;;;;;4.70;1.02;;;;;;;29.32;29.84;101040.85;5005991;58;1139124;-75
2021/06/08 12:44:03;;;;;;;1.15;1.05;;;;;;;29.19;28.65;101041.52;5005992;58;1138752;-76
2021/06/08 12:49:15;;;;;;;1.12;1.07;;;;;;;28.96;27.42;101042.23;5011729;57;1139071;-76
2021/06/08 12:54:42;;;;;;;10.13;1.30;;;;;;;29.10;27.47;101028.75;5037944;58;1138816;-72
2021/06/08 12:59:55;;;;;;;2.05;1.22;;;;;;;29.05;28.36;101034.88;5057004;58;1140595;-78
2021/06/08 13:05:03;;;;;;;1.50;1.40;;;;;;;29.24;26.68;101038.42;5037215;58;1138697;-75
2021/06/08 13:10:17;;;;;;;3.83;1.50;;;;;;;29.05;27.57;101025.88;4949258;58;1138820;-77
2021/06/08 13:15:39;;;;;;;5.78;1.47;;;;;;;29.09;28.06;101027.09;4991464;58;1138605;-79
2021/06/08 13:20:49;;;;;;;3.47;1.57;;;;;;;29.35;28.07;101025.38;4980500;58;1138458;-79
2021/06/08 13:26:11;;;;;;;8.77;1.53;;;;;;;29.56;27.30;101021.89;4950866;58;1138393;-76
2021/06/08 13:31:18;;;;;;;;;;;;;;;29.71;27.90;101020.40;4968982;58;1138308;-78
2021/06/08 13:36:27;;;;;;;2.25;1.32;;;;;;;29.88;26.79;101008.29;5056262;57;975783;-84
2021/06/08 13:41:34;;;;;;;3.02;1.25;;;;;;;29.87;27.38;101014.81;5034032;58;1136904;-80
2021/06/08 13:46:42;;;;;;;2.27;1.40;;;;;;;29.91;27.29;101011.09;5049530;58;1138283;-81
2021/06/08 13:51:53;;;;;;;1.20;1.10;;;;;;;30.13;27.12;100999.92;4970298;58;1138825;-79
2021/06/08 14:02:22;;;;;;;12.13;2.42;;;;;;;30.24;27.54;101000.48;4908311;58;1139118;-78
2021/06/08 14:07:31;;;;;;;5.30;1.90;;;;;;;30.28;26.64;100994.83;4908653;58;1140732;-79
2021/06/08 14:12:36;;;;;;;1.30;1.30;;;;;;;30.42;27.57;100991.32;4842727;58;1138736;-79
2021/06/08 14:17:44;;;;;;;1.50;1.40;;;;;;;30.58;26.57;100995.26;4842430;58;1138554;-77
2021/06/08 14:22:50;;;;;;;71.67;4.12;;;;;;;30.56;26.53;100982.37;4877662;58;1138673;-76
2021/06/08 14:27:56;;;;;;;10.53;2.30;;;;;;;30.63;26.93;100986.66;4913789;58;1140704;-77
2021/06/08 14:33:03;;;;;;;3.50;1.53;;;;;;;30.69;26.97;100983.52;4914308;58;1141232;-79
2021/06/08 14:38:09;;;;;;;5.80;1.45;;;;;;;30.50;25.92;100981.95;4842116;58;1138610;-78
2021/06/08 14:43:15;;;;;;;3.83;1.40;;;;;;;30.29;25.66;100979.29;4848125;58;1138767;-77
2021/06/08 14:48:20;;;;;;;4.70;1.60;;;;;;;30.27;27.17;100970.50;4841017;58;1138606;-80
2021/06/08 14:53:28;;;;;;;13.45;2.10;;;;;;;30.30;26.57;100970.87;4839942;59;1139070;-79
2021/06/08 14:58:34;;;;;;;5.65;2.27;;;;;;;30.27;27.29;100975.43;4878426;58;1140895;-81
2021/06/08 15:03:40;;;;;;;3.35;1.72;;;;;;;30.26;26.83;100975.66;4917117;58;1138484;-82
2021/06/08 15:08:46;;;;;;;3.20;2.05;;;;;;;30.38;27.35;100967.80;4886111;59;1138474;-77
2021/06/08 15:13:52;;;;;;;4.25;1.62;;;;;;;30.40;26.76;100958.80;4886164;59;1138495;-77
2021/06/08 15:18:58;;;;;;;2.58;1.50;;;;;;;30.56;26.90;100960.00;4886075;59;1138543;-78
2021/06/08 15:24:05;;;;;;;6.67;1.55;;;;;;;30.62;27.08;100959.59;4885890;59;1138716;-78
2021/06/08 15:29:10;;;;;;;23.90;2.30;;;;;;;30.66;27.13;100949.86;4886131;59;1138322;-77
2021/06/08 15:34:16;;;;;;;6.10;1.95;;;;;;;30.64;26.31;100950.09;4886046;59;1140482;-77
2021/06/08 15:39:22;;;;;;;12.85;1.67;;;;;;;30.48;25.89;100945.34;4886098;59;1138847;-81
2021/06/08 15:44:29;;;;;;;11.05;2.83;;;;;;;30.20;26.03;100944.72;4885841;59;1140484;-80
2021/06/08 15:49:35;;;;;;;5.92;1.52;;;;;;;30.03;26.94;100949.22;4885896;59;1140381;-81
2021/06/08 15:54:43;;;;;;;12.18;2.98;;;;;;;30.09;27.29;100940.10;4903578;59;1138728;-78
2021/06/08 15:59:49;;;;;;;7.70;2.07;;;;;;;30.17;27.06;100942.46;4949051;59;1140877;-81
2021/06/08 16:04:55;;;;;;;15.55;1.77;;;;;;;30.11;26.27;100937.94;4949166;59;1138909;-82
2021/06/08 16:10:01;;;;;;;3.77;1.90;;;;;;;29.98;26.62;100943.63;4948954;59;1140874;-77
2021/06/08 16:15:07;;;;;;;7.07;2.43;;;;;;;29.99;26.64;100942.03;4949104;59;1139142;-77
2021/06/08 16:20:14;;;;;;;8.05;2.33;;;;;;;29.95;27.08;100934.52;4949069;59;1138937;-77
2021/06/08 16:25:20;;;;;;;18.70;2.77;;;;;;;29.84;27.16;100930.73;4948875;59;1139048;-79
2021/06/08 16:30:26;;;;;;;10.20;2.40;;;;;;;29.73;27.12;100928.30;4948853;59;1140942;-78
2021/06/08 16:35:32;;;;;;;10.65;2.95;;;;;;;29.71;27.36;100926.33;4948893;59;1140911;-81
2021/06/08 16:40:38;;;;;;;8.95;2.40;;;;;;;29.59;27.56;100922.77;4948770;59;1140967;-82
2021/06/08 16:45:44;;;;;;;6.37;3.22;;;;;;;29.58;27.96;100922.47;4948932;59;1138788;-81
2021/06/08 16:56:07;;;;;;;25.62;2.35;;;;;;;29.67;27.86;100923.77;4948797;59;1140879;-80
2021/06/08 17:01:14;;;;;;;16.05;2.20;;;;;;;29.58;28.10;100918.91;4943517;59;1140693;-79
2021/06/08 17:06:21;;;;;;;7.03;2.30;;;;;;;29.58;27.78;100913.45;4903405;58;1140670;-80
2021/06/08 17:11:27;;;;;;;9.70;1.90;;;;;;;29.54;28.36;100914.98;4886802;59;1138552;-80
2021/06/08 17:16:34;;;;;;;3.05;1.50;;;;;;;29.34;28.43;100905.17;4902123;58;1138864;-79
2021/06/08 17:21:40;;;;;;;7.70;2.37;;;;;;;29.39;28.62;100912.70;4906240;59;1138626;-79
2021/06/08 17:26:46;;;;;;;10.30;2.75;;;;;;;29.31;28.98;100913.84;4883024;58;1138490;-79
2021/06/08 17:31:53;;;;;;;12.45;3.30;;;;;;;29.22;29.04;100924.75;4878251;59;1140606;-79
2021/06/08 17:36:59;;;;;;;17.35;3.08;;;;;;;29.09;29.24;100914.05;4930078;59;1140745;-77
2021/06/08 17:42:05;;;;;;;6.60;1.87;;;;;;;28.99;29.31;100917.87;4971494;58;1140898;-78
2021/06/08 17:47:12;;;;;;;19.52;1.98;;;;;;;28.89;29.31;100914.84;4957311;58;1138986;-80
2021/06/08 17:52:18;;;;;;;28.20;3.85;;;;;;;28.75;29.65;100915.52;4971278;58;1140498;-81
2021/06/08 17:57:25;;;;;;;19.32;3.10;;;;;;;28.61;30.05;100914.02;4930393;58;1140578;-77
2021/06/08 18:02:33;;;;;;;14.68;3.15;;;;;;;28.49;30.75;100920.75;4971065;58;1140563;-79
2021/06/08 18:07:39;;;;;;;9.43;2.80;;;;;;;28.32;31.20;100920.52;4930569;58;1140434;-76
2021/06/08 18:12:44;;;;;;;17.45;2.87;;;;;;;28.15;31.38;100913.97;4930682;59;1138288;-78
2021/06/08 18:17:57;;;;;;;24.70;3.30;;;;;;;27.98;31.69;100920.51;4946870;58;1140535;-83
2021/06/08 18:22:58;;;;;;;28.56;2.90;;;;;;;27.91;32.21;100921.64;4970616;58;1140585;-76
2021/06/08 18:28:04;;;;;;;13.65;2.90;;;;;;;27.88;32.39;100923.44;4930829;58;1140794;-79
2021/06/08 18:33:11;;;;;;;41.75;4.22;;;;;;;27.74;33.08;100928.69;4930806;58;1140522;-80
2021/06/08 18:38:17;;;;;;;14.35;4.62;;;;;;;27.69;33.33;100932.58;4971107;58;1140388;-80
2021/06/08 18:43:23;;;;;;;33.28;6.30;;;;;;;27.70;34.01;100941.05;4930640;58;1140590;-79
2021/06/08 18:48:30;;;;;;;22.95;7.53;;;;;;;27.69;34.45;100951.61;4928558;58;1140748;-76
2021/06/08 18:53:36;;;;;;;37.93;13.75;;;;;;;27.42;34.71;100946.86;4971680;58;1140877;-80
2021/06/08 18:58:43;;;;;;;36.00;12.75;;;;;;;27.08;35.14;100958.95;4970047;58;1143175;-82
2021/06/08 19:03:51;;;;;;;20.40;8.93;;;;;;;27.00;36.19;100960.05;5006536;58;1142721;-78
2021/06/08 19:08:57;;;;;;;14.75;8.00;;;;;;;26.68;36.63;100965.05;5009599;58;1140730;-79
2021/06/08 19:14:03;;;;;;;18.98;7.78;;;;;;;26.31;37.03;100970.13;5001061;58;1140663;-79
2021/06/08 19:19:09;;;;;;;28.98;21.68;;;;;;;26.12;38.34;100986.73;5049892;58;1140888;-81
2021/06/08 19:24:15;;;;;;;21.10;18.92;;;;;;;26.05;38.43;101000.79;5007606;58;1142728;-79
2021/06/08 19:29:21;;;;;;;9.68;5.72;;;;;;;25.99;38.37;101002.13;5049720;58;1142779;-80
2021/06/08 19:34:27;;;;;;;7.28;4.10;;;;;;;25.94;38.56;101004.13;4961414;58;1138651;-80
2021/06/08 19:39:33;;;;;;;5.15;3.10;;;;;;;25.89;38.43;101013.39;4928159;59;1138674;-80
2021/06/08 19:44:39;;;;;;;8.00;6.20;;;;;;;25.88;38.33;101012.56;4927960;58;1138740;-79
2021/06/08 19:49:45;;;;;;;7.97;5.10;;;;;;;25.73;38.41;101017.85;4968837;58;1138871;-78
2021/06/08 19:54:54;;;;;;;11.10;8.08;;;;;;;25.46;38.53;101020.48;4928238;59;1138496;-80
2021/06/08 20:00:00;;;;;;;9.86;6.72;;;;;;;25.28;38.92;101026.98;4967792;58;1140681;-79
2021/06/08 20:05:07;;;;;;;10.05;6.80;;;;;;;25.08;39.02;101030.11;4937433;59;1138400;-80
2021/06/08 20:10:14;;;;;;;23.22;16.50;;;;;;;24.82;39.28;101030.78;4837888;59;1140581;-80
2021/06/08 20:15:21;;;;;;;10.93;9.63;;;;;;;24.60;39.66;101035.42;4852773;58;1142688;-84
2021/06/08 20:20:27;;;;;;;24.87;17.20;;;;;;;24.52;40.11;101037.78;4877408;58;1140974;-80
2021/06/08 20:25:33;;;;;;;35.10;25.35;;;;;;;24.40;39.97;101035.31;4875356;58;1142664;-78
2021/06/08 20:30:39;;;;;;;43.52;31.75;;;;;;;24.26;39.89;101040.81;4911816;58;1142429;-79
2021/06/08 20:35:51;;;;;;;61.42;41.63;;;;;;;24.07;39.94;101044.46;4916702;58;1142449;-78
2021/06/08 20:40:57;;;;;;;17.55;15.00;;;;;;;23.77;40.16;101045.62;4917084;58;1143398;-77
2021/06/08 20:46:08;;;;;;;6.37;5.80;;;;;;;23.55;40.61;101049.31;4916597;58;1142650;-76
2021/06/08 20:51:13;;;;;;;3.92;3.62;;;;;;;23.45;40.88;101050.95;4917709;58;1138616;-77
2021/06/08 20:56:19;;;;;;;13.18;3.60;;;;;;;23.33;41.03;101060.57;4917390;58;1138684;-76
2021/06/08 21:01:25;;;;;;;3.75;3.40;;;;;;;23.23;41.31;101064.05;4915878;58;1140966;-76
2021/06/08 21:06:30;;;;;;;2.58;2.33;;;;;;;23.24;41.28;101068.43;5009521;58;1138789;-77
2021/06/08 21:11:37;;;;;;;7.15;6.20;;;;;;;23.19;41.39;101066.31;5051953;58;1139030;-76
2021/06/08 21:16:42;;;;;;;7.47;5.40;;;;;;;23.07;41.48;101071.33;5051940;58;1138870;-78
2021/06/08 21:21:48;;;;;;;6.70;5.87;;;;;;;22.97;41.50;101071.30;5010075;58;1138863;-80
2021/06/08 21:26:54;;;;;;;5.87;3.37;;;;;;;22.75;41.99;101083.31;5051902;58;1138806;-77
2021/06/08 21:32:00;;;;;;;2.70;2.42;;;;;;;22.58;42.19;101083.66;5051984;58;1138831;-77
2021/06/08 21:37:06;;;;;;;2.20;2.10;;;;;;;22.50;42.41;101095.34;5010046;58;1138803;-77
2021/06/08 21:42:14;;;;;;;157.50;83.80;;;;;;;22.28;42.45;101097.58;5010112;58;1138744;-79
2021/06/08 21:47:19;;;;;;;46.05;27.80;;;;;;;22.23;42.75;101102.15;5045447;57;1145024;-75
2021/06/08 21:52:32;;;;;;;5.65;3.92;;;;;;;22.28;42.80;101098.92;5052174;58;1143027;-78
2021/06/08 21:57:34;;;;;;;6.83;3.90;;;;;;;22.22;42.65;101100.98;5051668;58;1138843;-79
2021/06/08 22:02:40;;;;;;;7.22;2.77;;;;;;;22.18;42.62;101110.44;5010496;58;1138775;-78
2021/06/08 22:07:46;;;;;;;15.80;2.55;;;;;;;;;;4956046;58;1138717;-77
2021/06/08 22:12:53;;;;;;;1.92;1.70;;;;;;;21.93;42.73;101117.32;4974496;59;819749;-74
2021/06/08 22:17:59;;;;;;;2.67;1.90;;;;;;;21.91;42.67;101115.81;4980179;58;1136323;-76
2021/06/08 22:23:04;;;;;;;1.55;1.45;;;;;;;21.82;42.62;101111.00;4979926;58;1138472;-80
2021/06/08 22:28:10;;;;;;;3.33;2.10;;;;;;;21.62;42.49;101116.49;4979848;58;1138430;-79
2021/06/08 22:33:17;;;;;;;1.35;1.35;;;;;;;21.49;42.78;101118.41;4979946;58;1138501;-80
2021/06/08 22:38:23;;;;;;;2.62;1.32;;;;;;;21.54;42.99;101124.09;4980017;58;1138465;-78
2021/06/08 22:43:29;;;;;;;7.47;2.10;;;;;;;21.40;42.91;101132.90;4979828;58;1138438;-76
2021/06/08 22:48:35;;;;;;;3.15;1.07;;;;;;;21.23;43.20;101130.80;4980149;58;1138670;-79
2021/06/08 22:53:42;;;;;;;2.37;0.80;;;;;;;21.08;43.61;101129.81;4979726;58;1138763;-78
2021/06/08 22:58:48;;;;;;;3.90;1.10;;;;;;;21.03;43.75;101133.51;4979835;58;1138520;-77
2021/06/08 23:03:54;;;;;;;1.05;1.05;;;;;;;20.83;44.36;101133.54;4979864;58;1138793;-79
2021/06/08 23:09:00;;;;;;;1.50;1.10;;;;;;;20.66;44.68;101130.88;4979891;56;1138463;-78
2021/06/08 23:14:06;;;;;;;1.72;1.62;;;;;;;20.66;44.87;101133.56;4979921;58;1138372;-77
2021/06/08 23:19:13;;;;;;;1.47;1.15;;;;;;;20.67;45.02;101115.58;4979751;58;1138516;-77
2021/06/08 23:24:19;;;;;;;1.77;1.25;;;;;;;20.58;45.47;101121.48;4979779;58;1138538;-77
2021/06/08 23:29:24;;;;;;;3.92;1.32;;;;;;;20.60;45.71;101114.60;4979661;58;1138273;-77